createdAt,value
2022-11-14T00:01:10.230Z,43.92
2022-11-14T00:03:37.014Z,40.33
2022-11-14T00:06:07.504Z,52.20
2022-11-14T00:08:34.783Z,44.80
2022-11-14T00:11:01.555Z,47.85
2022-11-14T00:13:28.309Z,50.53
2022-11-14T00:15:55.203Z,53.65
2022-11-14T00:18:22.435Z,49.17
2022-11-14T00:20:50.430Z,49.33
2022-11-14T00:23:17.990Z,56.28
2022-11-14T00:25:45.784Z,52.40
2022-11-14T00:28:13.244Z,53.65
2022-11-14T00:30:39.954Z,50.70
2022-11-14T00:33:06.678Z,51.50
2022-11-14T00:35:33.404Z,50.40
2022-11-14T00:38:00.775Z,56.72
2022-11-14T00:40:27.535Z,58.17
2022-11-14T00:42:54.832Z,48.47
2022-11-14T00:45:21.734Z,54.00
2022-11-14T00:47:48.453Z,46.72
2022-11-14T00:50:16.685Z,44.22
2022-11-14T00:52:43.384Z,44.38
2022-11-14T00:55:10.175Z,41.63
2022-11-14T00:57:36.866Z,48.10
2022-11-14T01:00:05.426Z,42.70
2022-11-14T01:02:32.148Z,40.50
2022-11-14T01:04:58.842Z,39.30
2022-11-14T01:07:25.579Z,42.65
2022-11-14T01:09:52.322Z,43.92
2022-11-14T01:12:19.787Z,39.47
2022-11-14T01:14:46.574Z,40.47
2022-11-14T01:17:13.311Z,44.35
2022-11-14T01:19:40.757Z,40.05
2022-11-14T01:22:07.590Z,40.45
2022-11-14T01:24:34.607Z,38.72
2022-11-14T01:27:01.773Z,36.20
2022-11-14T01:29:28.649Z,41.38
2022-11-14T01:31:56.087Z,39.20
2022-11-14T01:34:23.667Z,38.22
2022-11-14T01:36:50.484Z,40.20
2022-11-14T01:39:17.209Z,34.67
2022-11-14T01:41:44.194Z,34.13
2022-11-14T01:44:17.637Z,36.13
2022-11-14T01:46:48.693Z,39.47
2022-11-14T01:49:27.217Z,33.50
2022-11-14T01:52:03.330Z,37.00
2022-11-14T01:54:34.726Z,34.08
2022-11-14T01:57:04.334Z,35.72
2022-11-14T01:59:44.915Z,30.63
2022-11-14T02:02:17.974Z,39.15
2022-11-14T02:04:53.660Z,35.33
2022-11-14T02:07:20.678Z,35.65
2022-11-14T02:09:48.911Z,41.63
2022-11-14T02:12:18.140Z,34.53
2022-11-14T02:14:47.056Z,36.55
2022-11-14T02:17:28.924Z,34.88
2022-11-14T02:20:10.844Z,40.72
2022-11-14T02:22:41.684Z,41.72
2022-11-14T02:25:10.476Z,38.42
2022-11-14T02:27:39.229Z,40.80
2022-11-14T02:30:07.369Z,43.97
2022-11-14T02:32:56.954Z,42.25
2022-11-14T02:35:21.060Z,39.35
2022-11-14T02:37:47.744Z,41.63
2022-11-14T02:40:14.522Z,40.33
2022-11-14T02:42:41.635Z,40.75
2022-11-14T02:45:09.651Z,43.15
2022-11-14T02:47:36.416Z,39.67
2022-11-14T02:50:03.536Z,38.00
2022-11-14T02:52:30.216Z,42.03
2022-11-14T02:54:56.980Z,46.03
2022-11-14T02:57:23.680Z,44.63
2022-11-14T02:59:50.384Z,45.92
2022-11-14T03:02:17.070Z,46.25
2022-11-14T03:04:43.818Z,42.85
2022-11-14T03:07:10.594Z,41.67
2022-11-14T03:09:37.340Z,45.75
2022-11-14T03:12:04.332Z,41.75
2022-11-14T03:14:31.822Z,37.92
2022-11-14T03:16:58.769Z,43.03
2022-11-14T03:19:25.505Z,39.85
2022-11-14T03:21:52.258Z,37.33
2022-11-14T03:24:19.070Z,34.92
2022-11-14T03:26:45.756Z,43.28
2022-11-14T03:29:12.493Z,44.83
2022-11-14T03:31:39.185Z,40.00
2022-11-14T03:34:05.870Z,34.47
2022-11-14T03:36:33.816Z,37.50
2022-11-14T03:39:00.498Z,40.13
2022-11-14T03:41:27.184Z,42.38
2022-11-14T03:43:54.168Z,37.30
2022-11-14T03:46:21.100Z,39.70
2022-11-14T03:48:47.807Z,40.05
2022-11-14T03:51:14.689Z,47.20
2022-11-14T03:53:41.380Z,37.25
2022-11-14T03:56:08.100Z,35.90
2022-11-14T03:58:34.798Z,40.38
2022-11-14T04:01:01.637Z,39.92
2022-11-14T04:03:28.329Z,39.20
2022-11-14T04:05:55.050Z,41.92
2022-11-14T04:08:21.778Z,38.40
2022-11-14T04:10:49.143Z,39.38
2022-11-14T04:13:16.131Z,50.38
2022-11-14T04:15:42.837Z,40.85
2022-11-14T04:18:09.533Z,44.30
2022-11-14T04:20:36.276Z,47.67
2022-11-14T04:23:02.990Z,48.13
2022-11-14T04:25:29.710Z,48.35
2022-11-14T04:27:56.443Z,46.67
2022-11-14T04:30:23.122Z,43.88
2022-11-14T04:32:49.844Z,44.53
2022-11-14T04:35:16.680Z,54.47
2022-11-14T04:37:43.442Z,48.38
2022-11-14T04:40:10.537Z,45.75
2022-11-14T04:42:37.276Z,44.55
2022-11-14T04:45:04.424Z,42.55
2022-11-14T04:47:31.197Z,38.23
2022-11-14T04:49:57.943Z,36.47
2022-11-14T04:52:24.700Z,39.93
2022-11-14T04:54:51.412Z,40.60
2022-11-14T04:57:18.134Z,40.97
2022-11-14T04:59:44.979Z,39.30
2022-11-14T05:02:11.713Z,41.83
2022-11-14T05:04:38.493Z,36.67
2022-11-14T05:07:05.276Z,28.05
2022-11-14T05:09:32.086Z,34.90
2022-11-14T05:11:58.770Z,36.63
2022-11-14T05:14:25.538Z,41.70
2022-11-14T05:16:52.230Z,44.93
2022-11-14T05:19:18.939Z,36.83
2022-11-14T05:21:45.775Z,32.33
2022-11-14T05:24:13.004Z,36.20
2022-11-14T05:26:39.788Z,34.03
2022-11-14T05:29:06.719Z,36.60
2022-11-14T05:31:33.703Z,36.27
2022-11-14T05:34:00.403Z,30.53
2022-11-14T05:36:27.200Z,34.80
2022-11-14T05:38:54.479Z,35.53
2022-11-14T05:41:21.197Z,36.15
2022-11-14T05:43:48.138Z,34.08
2022-11-14T05:46:16.407Z,35.20
2022-11-14T05:48:43.371Z,36.07
2022-11-14T05:51:12.451Z,33.80
2022-11-14T05:53:40.182Z,35.47
2022-11-14T05:56:11.547Z,39.10
2022-11-14T05:58:38.310Z,32.87
2022-11-14T06:01:09.785Z,39.53
2022-11-14T06:03:42.620Z,31.77
2022-11-14T06:06:11.595Z,35.27
2022-11-14T06:08:38.574Z,31.77
2022-11-14T06:11:23.360Z,32.83
2022-11-14T06:13:50.134Z,31.70
2022-11-14T06:16:19.518Z,30.40
2022-11-14T06:18:46.948Z,29.23
2022-11-14T06:21:16.535Z,30.13
2022-11-14T06:23:43.952Z,32.17
2022-11-14T06:26:30.603Z,37.17
2022-11-14T06:28:58.438Z,31.67
2022-11-14T06:31:25.912Z,34.37
2022-11-14T06:33:53.041Z,36.30
2022-11-14T06:36:20.319Z,32.60
2022-11-14T06:38:47.038Z,35.90
2022-11-14T06:41:19.903Z,33.63
2022-11-14T06:43:48.892Z,35.87
2022-11-14T06:46:17.937Z,33.03
2022-11-14T06:48:46.768Z,38.13
2022-11-14T06:51:15.346Z,30.73
2022-11-14T06:53:42.991Z,39.37
2022-11-14T06:56:12.530Z,68.63
2022-11-14T06:58:47.813Z,40.93
2022-11-14T07:01:16.383Z,39.47
2022-11-14T07:03:44.231Z,33.07
2022-11-14T07:06:14.345Z,33.93
2022-11-14T07:08:41.530Z,31.90
2022-11-14T07:11:23.053Z,35.50
2022-11-14T07:13:54.502Z,31.17
2022-11-14T07:16:23.948Z,32.07
2022-11-14T07:18:50.674Z,31.70
2022-11-14T07:21:17.470Z,29.30
2022-11-14T07:23:44.211Z,35.45
2022-11-14T07:26:11.920Z,29.52
2022-11-14T07:28:41.926Z,36.53
2022-11-14T07:31:12.457Z,35.15
2022-11-14T07:33:40.178Z,33.57
2022-11-14T07:36:07.548Z,33.83
2022-11-14T07:38:35.525Z,44.97
2022-11-14T07:41:10.882Z,39.90
2022-11-14T07:43:37.972Z,40.37
2022-11-14T07:46:16.099Z,41.57
2022-11-14T07:48:43.767Z,37.60
2022-11-14T07:51:15.399Z,38.07
2022-11-14T07:53:42.207Z,41.70
2022-11-14T07:56:09.956Z,36.30
2022-11-14T07:58:38.037Z,38.30
2022-11-14T08:01:06.504Z,44.00
2022-11-14T08:03:34.074Z,40.00
2022-11-14T08:06:09.503Z,44.10
2022-11-14T08:08:36.423Z,43.40
2022-11-14T08:11:03.498Z,40.40
2022-11-14T08:13:32.830Z,39.67
2022-11-14T08:16:12.340Z,39.43
2022-11-14T08:18:40.242Z,35.50
2022-11-14T08:21:07.259Z,33.80
2022-11-14T08:23:34.152Z,36.70
2022-11-14T08:26:01.080Z,34.33
2022-11-14T08:28:28.333Z,34.63
2022-11-14T08:31:00.785Z,30.90
2022-11-14T08:33:27.501Z,34.30
2022-11-14T08:35:54.272Z,30.50
2022-11-14T08:38:20.962Z,33.10
2022-11-14T08:40:47.699Z,30.60
2022-11-14T08:43:14.398Z,27.30
2022-11-14T08:45:41.083Z,32.43
2022-11-14T08:48:07.806Z,32.37
2022-11-14T08:50:34.517Z,28.70
2022-11-14T08:53:01.211Z,27.00
2022-11-14T08:55:27.982Z,28.93
2022-11-14T08:57:54.910Z,31.83
2022-11-14T09:00:21.986Z,30.20
2022-11-14T09:02:48.874Z,25.50
2022-11-14T09:05:15.795Z,24.40
2022-11-14T09:07:42.707Z,27.20
2022-11-14T09:10:10.002Z,29.07
2022-11-14T09:12:36.738Z,25.17
2022-11-14T09:15:03.627Z,27.87
2022-11-14T09:17:30.353Z,28.13
2022-11-14T09:19:57.398Z,28.50
2022-11-14T09:22:24.232Z,30.10
2022-11-14T09:24:52.067Z,28.30
2022-11-14T09:27:18.877Z,26.93
2022-11-14T09:29:45.659Z,24.93
2022-11-14T09:32:12.415Z,25.90
2022-11-14T09:34:42.957Z,29.40
2022-11-14T09:37:10.065Z,26.63
2022-11-14T09:39:40.512Z,29.10
2022-11-14T09:42:16.971Z,27.60
2022-11-14T09:44:50.713Z,22.23
2022-11-14T09:47:24.958Z,25.73
2022-11-14T09:49:56.096Z,21.60
2022-11-14T09:52:46.176Z,25.20
2022-11-14T09:55:14.513Z,25.20
2022-11-14T09:57:44.172Z,25.57
2022-11-14T10:00:39.261Z,22.40
2022-11-14T10:03:19.266Z,25.70
2022-11-14T10:05:55.004Z,21.73
2022-11-14T10:08:24.821Z,20.63
2022-11-14T10:11:10.534Z,26.07
2022-11-14T10:13:42.368Z,27.33
2022-11-14T10:16:30.048Z,26.83
2022-11-14T10:19:20.781Z,27.40
2022-11-14T10:21:50.579Z,25.80
2022-11-14T10:24:30.851Z,27.67
2022-11-14T10:27:02.228Z,28.00
2022-11-14T10:29:53.929Z,28.30
2022-11-14T10:33:09.279Z,24.17
2022-11-14T10:35:42.435Z,23.27
2022-11-14T10:38:36.942Z,23.47
2022-11-14T10:41:06.538Z,22.03
2022-11-14T10:43:42.183Z,19.60
2022-11-14T10:46:36.707Z,23.47
2022-11-14T10:49:21.101Z,21.40
2022-11-14T10:51:54.895Z,22.77
2022-11-14T10:54:51.139Z,24.60
2022-11-14T10:57:20.092Z,19.17
2022-11-14T10:59:47.463Z,21.20
2022-11-14T11:02:14.810Z,20.40
2022-11-14T11:04:43.223Z,19.10
2022-11-14T11:07:10.112Z,21.43
2022-11-14T11:09:58.217Z,23.30
2022-11-14T11:12:48.688Z,21.03
2022-11-14T11:15:20.221Z,19.37
2022-11-14T11:18:01.480Z,19.93
2022-11-14T11:20:36.004Z,18.63
2022-11-14T11:23:09.995Z,23.93
2022-11-14T11:25:38.828Z,24.00
2022-11-14T11:28:06.440Z,25.97
2022-11-14T11:30:34.138Z,24.50
2022-11-14T11:33:19.665Z,24.10
2022-11-14T11:35:49.522Z,19.20
2022-11-14T11:38:17.647Z,21.77
2022-11-14T11:40:48.405Z,21.40
2022-11-14T11:43:45.126Z,18.23
2022-11-14T11:46:29.452Z,19.00
2022-11-14T11:49:17.965Z,17.10
2022-11-14T11:51:46.417Z,15.53
2022-11-14T11:54:22.836Z,15.20
2022-11-14T11:56:58.464Z,13.90
2022-11-14T11:59:46.381Z,16.60
2022-11-14T12:02:25.110Z,15.33
2022-11-14T12:04:54.770Z,12.27
2022-11-14T12:07:46.966Z,12.67
2022-11-14T12:10:20.746Z,13.17
2022-11-14T12:13:15.562Z,12.87
2022-11-14T12:15:49.709Z,12.27
2022-11-14T12:18:43.733Z,13.93
2022-11-14T12:21:24.330Z,10.93
2022-11-14T12:24:11.994Z,11.50
2022-11-14T12:26:49.935Z,12.27
2022-11-14T12:29:44.130Z,8.27
2022-11-14T12:32:15.904Z,6.80
2022-11-14T12:34:46.110Z,8.57
2022-11-14T12:37:38.133Z,6.20
2022-11-14T12:40:06.391Z,8.10
2022-11-14T12:42:33.898Z,5.50
2022-11-14T12:45:00.689Z,5.60
2022-11-14T12:47:28.893Z,5.50
2022-11-14T12:49:56.587Z,5.00
2022-11-14T12:52:44.275Z,4.07
2022-11-14T12:55:26.268Z,8.57
2022-11-14T12:58:01.496Z,3.37
2022-11-14T13:00:28.666Z,4.33
2022-11-14T13:03:20.475Z,6.47
2022-11-14T13:06:18.457Z,5.70
2022-11-14T13:09:07.154Z,4.27
2022-11-14T13:12:06.645Z,5.00
2022-11-14T13:15:10.991Z,6.00
2022-11-14T13:17:56.331Z,3.30
2022-11-14T13:20:47.865Z,5.50
2022-11-14T13:23:43.353Z,6.70
2022-11-14T13:26:10.157Z,7.83
2022-11-14T13:28:48.025Z,4.97
2022-11-14T13:31:35.906Z,5.00
2022-11-14T13:34:43.791Z,5.53
2022-11-14T13:37:47.129Z,8.23
2022-11-14T13:40:13.895Z,4.93
2022-11-14T13:43:11.250Z,5.80
2022-11-14T13:45:45.258Z,3.70
2022-11-14T13:48:20.881Z,3.73
2022-11-14T13:50:53.167Z,5.57
2022-11-14T13:53:24.798Z,4.57
2022-11-14T13:56:04.474Z,5.30
2022-11-14T13:58:55.081Z,8.30
2022-11-14T14:01:37.122Z,6.20
2022-11-14T14:04:23.686Z,4.83
2022-11-14T14:07:03.325Z,5.00
2022-11-14T14:09:43.850Z,5.37
2022-11-14T14:12:33.706Z,4.83
2022-11-14T14:15:23.189Z,5.23
2022-11-14T14:18:09.484Z,4.50
2022-11-14T14:20:36.165Z,3.33
2022-11-14T14:23:26.247Z,7.33
2022-11-14T14:26:44.992Z,4.00
2022-11-14T14:29:33.191Z,3.83
2022-11-14T14:32:17.334Z,4.20
2022-11-14T14:34:44.875Z,3.63
2022-11-14T14:37:23.444Z,6.57
2022-11-14T14:39:57.528Z,7.33
2022-11-14T14:42:29.483Z,2.93
2022-11-14T14:44:59.188Z,9.83
2022-11-14T14:47:32.503Z,4.83
2022-11-14T14:50:05.014Z,3.63
2022-11-14T14:52:35.982Z,19.20
2022-11-14T14:55:04.456Z,15.40
2022-11-14T14:57:31.175Z,11.80
2022-11-14T15:00:02.228Z,10.40
2022-11-14T15:02:29.471Z,10.50
2022-11-14T15:04:59.264Z,7.33
2022-11-14T15:07:29.078Z,8.47
2022-11-14T15:09:59.371Z,4.70
2022-11-14T15:12:29.073Z,5.73
2022-11-14T15:14:57.478Z,9.37
2022-11-14T15:17:25.091Z,3.97
2022-11-14T15:19:54.240Z,4.77
2022-11-14T15:22:25.785Z,5.23
2022-11-14T15:25:10.730Z,5.97
2022-11-14T15:27:51.355Z,5.00
2022-11-14T15:30:36.811Z,5.80
2022-11-14T15:33:06.213Z,9.40
2022-11-14T15:35:35.141Z,7.83
2022-11-14T15:38:28.922Z,8.53
2022-11-14T15:41:10.140Z,6.43
2022-11-14T15:43:38.363Z,6.83
2022-11-14T15:46:24.457Z,10.00
2022-11-14T15:48:51.426Z,7.57
2022-11-14T15:51:18.288Z,7.70
2022-11-14T15:53:49.536Z,8.80
2022-11-14T15:56:16.281Z,12.40
2022-11-14T15:58:46.708Z,8.13
2022-11-14T16:01:24.181Z,8.13
2022-11-14T16:03:51.661Z,9.23
2022-11-14T16:06:18.453Z,10.53
2022-11-14T16:08:45.253Z,8.67
2022-11-14T16:11:11.973Z,10.97
2022-11-14T16:13:38.734Z,28.97
2022-11-14T16:16:05.699Z,20.57
2022-11-14T16:18:32.420Z,13.70
2022-11-14T16:20:59.825Z,16.60
2022-11-14T16:23:26.874Z,14.57
2022-11-14T16:25:53.576Z,11.93
2022-11-14T16:28:20.298Z,13.90
2022-11-14T16:30:47.006Z,6.40
2022-11-14T16:33:13.684Z,9.07
2022-11-14T16:35:40.403Z,3.80
2022-11-14T16:38:07.768Z,8.40
2022-11-14T16:40:34.473Z,12.53
2022-11-14T16:43:01.677Z,20.13
2022-11-14T16:45:28.662Z,18.13
2022-11-14T16:47:55.386Z,7.20
2022-11-14T16:50:22.139Z,8.17
2022-11-14T16:52:49.217Z,10.23
2022-11-14T16:55:16.064Z,3.77
2022-11-14T16:57:42.800Z,5.00
2022-11-14T17:00:12.379Z,3.70
2022-11-14T17:02:42.570Z,4.70
2022-11-14T17:05:09.611Z,3.67
2022-11-14T17:07:36.339Z,4.03
2022-11-14T17:10:04.061Z,8.07
2022-11-14T17:12:32.208Z,10.47
2022-11-14T17:14:59.154Z,7.73
2022-11-14T17:17:26.075Z,8.80
2022-11-14T17:19:52.834Z,16.70
2022-11-14T17:22:20.080Z,13.00
2022-11-14T17:24:46.866Z,15.37
2022-11-14T17:27:13.633Z,27.87
2022-11-14T17:29:40.348Z,17.90
2022-11-14T17:32:07.173Z,20.40
2022-11-14T17:34:33.920Z,19.43
2022-11-14T17:37:00.651Z,20.63
2022-11-14T17:39:30.437Z,22.10
2022-11-14T17:41:57.216Z,22.10
2022-11-14T17:44:23.953Z,21.63
2022-11-14T17:46:50.652Z,21.20
2022-11-14T17:49:17.433Z,17.07
2022-11-14T17:51:44.176Z,18.00
2022-11-14T17:54:10.939Z,18.23
2022-11-14T17:56:41.236Z,20.60
2022-11-14T17:59:12.588Z,16.73
2022-11-14T18:01:39.418Z,17.60
2022-11-14T18:04:06.779Z,19.40
2022-11-14T18:06:33.976Z,20.53
2022-11-14T18:09:04.930Z,23.87
2022-11-14T18:11:31.813Z,23.60
2022-11-14T18:13:58.873Z,19.30
2022-11-14T18:16:31.416Z,21.40
2022-11-14T18:19:06.379Z,22.33
2022-11-14T18:21:33.181Z,15.73
2022-11-14T18:24:00.471Z,15.10
2022-11-14T18:26:28.939Z,16.30
2022-11-14T18:28:57.795Z,40.83
2022-11-14T18:31:25.355Z,33.90
2022-11-14T18:33:52.359Z,35.40
2022-11-14T18:36:19.607Z,30.30
2022-11-14T18:38:46.738Z,27.07
2022-11-14T18:41:16.192Z,28.47
2022-11-14T18:43:44.522Z,38.20
2022-11-14T18:46:15.071Z,31.43
2022-11-14T18:48:44.469Z,28.03
2022-11-14T18:51:16.832Z,20.43
2022-11-14T18:53:43.942Z,15.77
2022-11-14T18:56:16.466Z,15.47
2022-11-14T18:58:44.373Z,15.33
2022-11-14T19:01:24.128Z,14.90
2022-11-14T19:03:52.159Z,9.67
2022-11-14T19:06:19.413Z,14.47
2022-11-14T19:08:46.430Z,12.83
2022-11-14T19:11:34.227Z,18.50
2022-11-14T19:14:02.428Z,23.70
2022-11-14T19:16:31.095Z,25.93
2022-11-14T19:18:58.652Z,21.50
2022-11-14T19:21:25.457Z,28.17
2022-11-14T19:23:54.589Z,25.80
2022-11-14T19:26:22.473Z,27.47
2022-11-14T19:28:49.634Z,26.30
2022-11-14T19:31:17.774Z,32.80
2022-11-14T19:33:47.286Z,32.73
2022-11-14T19:36:18.814Z,31.50
2022-11-14T19:39:01.514Z,27.77
2022-11-14T19:41:30.027Z,35.13
2022-11-14T19:43:59.507Z,34.00
2022-11-14T19:46:28.791Z,31.30
2022-11-14T19:49:00.320Z,32.20
2022-11-14T19:51:29.020Z,35.20
2022-11-14T19:53:57.713Z,32.80
2022-11-14T19:56:24.928Z,29.43
2022-11-14T19:58:53.610Z,32.77
2022-11-14T20:01:22.864Z,29.53
2022-11-14T20:03:58.384Z,36.83
2022-11-14T20:06:34.187Z,32.83
2022-11-14T20:09:04.498Z,27.73
2022-11-14T20:11:31.493Z,31.60
2022-11-14T20:13:59.702Z,28.87
2022-11-14T20:16:30.154Z,35.17
2022-11-14T20:19:00.661Z,31.80
2022-11-14T20:21:30.425Z,48.80
2022-11-14T20:23:57.536Z,52.40
2022-11-14T20:26:24.668Z,40.73
2022-11-14T20:28:53.901Z,36.80
2022-11-14T20:31:27.277Z,38.33
2022-11-14T20:33:55.057Z,32.70
2022-11-14T20:36:24.602Z,29.37
2022-11-14T20:38:52.248Z,22.23
2022-11-14T20:41:19.565Z,21.13
2022-11-14T20:43:46.772Z,21.27
2022-11-14T20:46:18.894Z,19.10
2022-11-14T20:48:46.511Z,17.70
2022-11-14T20:51:19.911Z,20.77
2022-11-14T20:53:46.803Z,21.03
2022-11-14T20:56:14.804Z,22.93
2022-11-14T20:58:42.900Z,28.03
2022-11-14T21:01:10.788Z,25.30
2022-11-14T21:03:40.738Z,26.47
2022-11-14T21:06:11.011Z,25.30
2022-11-14T21:08:38.392Z,26.50
2022-11-14T21:11:07.785Z,26.40
2022-11-14T21:13:54.998Z,28.70
2022-11-14T21:16:25.677Z,25.20
2022-11-14T21:18:56.874Z,24.43
2022-11-14T21:21:24.701Z,24.37
2022-11-14T21:23:51.826Z,24.07
2022-11-14T21:26:21.898Z,25.97
2022-11-14T21:28:51.665Z,25.03
2022-11-14T21:31:23.204Z,24.07
2022-11-14T21:33:53.887Z,29.93
2022-11-14T21:39:07.510Z,32.00
2022-11-14T21:41:34.279Z,33.07
2022-11-14T21:44:02.964Z,31.67
2022-11-14T21:46:29.883Z,33.47
2022-11-14T21:48:57.404Z,30.30
2022-11-14T21:51:28.291Z,36.17
2022-11-14T21:53:58.573Z,54.80
2022-11-14T21:56:30.261Z,44.23
2022-11-14T21:59:13.534Z,34.33
2022-11-14T22:02:08.738Z,29.07
2022-11-14T22:04:36.227Z,24.30
2022-11-14T22:07:05.943Z,22.27
2022-11-14T22:09:33.434Z,19.90
2022-11-14T22:12:00.509Z,17.50
2022-11-14T22:14:27.510Z,16.77
2022-11-14T22:16:54.208Z,17.47
2022-11-14T22:19:21.581Z,21.70
2022-11-14T22:21:48.988Z,16.57
2022-11-14T22:24:15.794Z,20.53
2022-11-14T22:26:42.541Z,19.53
2022-11-14T22:29:09.338Z,14.20
2022-11-14T22:31:37.612Z,16.40
2022-11-14T22:34:04.703Z,17.20
2022-11-14T22:36:31.488Z,22.20
2022-11-14T22:38:58.515Z,22.27
2022-11-14T22:41:32.829Z,17.17
2022-11-14T22:44:00.571Z,24.77
2022-11-14T22:46:27.717Z,22.90
2022-11-14T22:48:55.015Z,20.47
2022-11-14T22:51:24.113Z,18.00
2022-11-14T22:54:00.850Z,21.43
2022-11-14T22:56:29.299Z,23.40
2022-11-14T22:58:58.714Z,24.43
2022-11-14T23:01:28.007Z,21.90
2022-11-14T23:03:56.603Z,20.27
2022-11-14T23:06:24.492Z,23.13
2022-11-14T23:08:52.052Z,25.40
2022-11-14T23:11:21.514Z,21.73
2022-11-14T23:13:50.950Z,23.17
2022-11-14T23:16:20.241Z,23.73
2022-11-14T23:18:48.233Z,24.40
2022-11-14T23:21:20.307Z,28.43
2022-11-14T23:23:51.934Z,27.00
2022-11-14T23:26:19.178Z,23.70
2022-11-14T23:28:45.941Z,24.10
2022-11-14T23:31:13.373Z,26.80
2022-11-14T23:33:40.090Z,25.47
2022-11-14T23:36:06.970Z,22.53
2022-11-14T23:38:33.757Z,20.07
2022-11-14T23:41:01.830Z,19.73
2022-11-14T23:43:30.067Z,19.33
2022-11-14T23:45:57.795Z,23.93
2022-11-14T23:48:24.758Z,17.00
2022-11-14T23:50:56.260Z,17.27
2022-11-14T23:53:23.505Z,20.23
2022-11-14T23:55:54.874Z,22.33
2022-11-14T23:58:23.457Z,17.77
